createdAt,value
2023-11-09T00:04:45.611Z,100185.19
2023-11-09T00:09:53.376Z,100167.09
2023-11-09T00:14:57.457Z,100155.16
2023-11-09T00:20:02.601Z,100155.25
2023-11-09T00:25:07.929Z,100150.09
2023-11-09T00:30:12.506Z,100136.41
2023-11-09T00:35:20.725Z,100135.56
2023-11-09T00:40:24.348Z,100124.44
2023-11-09T00:45:28.853Z,100112.47
2023-11-09T00:50:34.118Z,100116.69
2023-11-09T00:55:37.827Z,100107.94
2023-11-09T01:00:41.594Z,100101.13
2023-11-09T01:05:47.063Z,100103.88
2023-11-09T01:10:50.795Z,100093.44
2023-11-09T01:15:54.547Z,100086.47
2023-11-09T01:20:59.699Z,100081.31
2023-11-09T01:26:03.393Z,100080.47
2023-11-09T01:31:07.161Z,100081.50
2023-11-09T01:36:15.599Z,100082.34
2023-11-09T01:41:19.983Z,100079.72
2023-11-09T01:46:24.113Z,100067.66
2023-11-09T01:51:31.017Z,100072.84
2023-11-09T01:56:36.056Z,100059.16
2023-11-09T02:01:42.192Z,100056.47
2023-11-09T02:06:48.056Z,100049.78
2023-11-09T02:11:51.965Z,100047.97
2023-11-09T02:16:57.051Z,100044.50
2023-11-09T02:22:03.528Z,100034.25
2023-11-09T02:27:08.633Z,100035.22
2023-11-09T02:32:12.369Z,100037.09
2023-11-09T02:37:16.193Z,100022.53
2023-11-09T02:42:21.536Z,100023.44
2023-11-09T02:47:25.242Z,100012.25
2023-11-09T02:52:29.066Z,100010.53
2023-11-09T02:57:34.149Z,100010.59
2023-11-09T03:08:02.287Z,100005.53
2023-11-09T03:13:07.666Z,100021.94
2023-11-09T03:18:12.306Z,99999.75
2023-11-09T03:23:16.069Z,99992.16
2023-11-09T03:28:21.186Z,99990.28
2023-11-09T03:33:24.906Z,99989.47
2023-11-09T03:38:29.642Z,100002.56
2023-11-09T03:43:34.696Z,99996.53
2023-11-09T03:48:38.466Z,100013.06
2023-11-09T03:53:42.579Z,100017.44
2023-11-09T03:58:48.411Z,100020.97
2023-11-09T04:03:52.277Z,100017.56
2023-11-09T04:08:56.167Z,100012.41
2023-11-09T04:14:01.222Z,100023.53
2023-11-09T04:19:05.104Z,100020.97
2023-11-09T04:24:09.358Z,100025.19
2023-11-09T04:29:14.494Z,100037.22
2023-11-09T04:34:20.645Z,100038.69
2023-11-09T04:39:30.718Z,100054.84
2023-11-09T04:44:37.756Z,100043.78
2023-11-09T04:49:47.000Z,100041.13
2023-11-09T04:54:58.387Z,100047.16
2023-11-09T05:00:35.904Z,100038.59
2023-11-09T05:05:57.470Z,100039.22
2023-11-09T05:11:01.211Z,100056.31
2023-11-09T05:16:07.453Z,100061.41
2023-11-09T05:21:11.330Z,100060.25
2023-11-09T05:26:16.300Z,100061.09
2023-11-09T05:31:21.395Z,100059.31
2023-11-09T05:36:25.133Z,100057.75
2023-11-09T05:41:30.551Z,100048.84
2023-11-09T05:46:37.639Z,100044.34
2023-11-09T05:51:44.904Z,100054.59
2023-11-09T05:56:48.652Z,100052.03
2023-11-09T06:01:53.676Z,100062.91
2023-11-09T06:06:57.722Z,100076.69
2023-11-09T06:12:01.562Z,100076.03
2023-11-09T06:17:06.724Z,100071.47
2023-11-09T06:22:10.545Z,100072.13
2023-11-09T06:27:18.432Z,100086.03
2023-11-09T06:32:23.592Z,100091.03
2023-11-09T06:37:27.641Z,100097.72
2023-11-09T06:42:32.131Z,100102.41
2023-11-09T06:47:39.650Z,100103.53
2023-11-09T06:52:44.172Z,100115.53
2023-11-09T06:57:49.350Z,100114.66
2023-11-09T07:02:55.226Z,100130.91
2023-11-09T07:07:59.073Z,100124.81
2023-11-09T07:13:02.840Z,100127.22
2023-11-09T07:18:09.065Z,100134.19
2023-11-09T07:23:13.064Z,100124.03
2023-11-09T07:28:16.856Z,100123.19
2023-11-09T07:33:22.533Z,100131.91
2023-11-09T07:38:26.414Z,100144.63
2023-11-09T07:43:31.925Z,100139.84
2023-11-09T07:48:37.275Z,100130.56
2023-11-09T07:53:41.059Z,100141.16
2023-11-09T07:58:44.934Z,100132.78
2023-11-09T08:03:50.507Z,100136.03
2023-11-09T08:08:54.360Z,100137.56
2023-11-09T08:13:59.002Z,100150.22
2023-11-09T08:19:05.022Z,100149.50
2023-11-09T08:24:10.730Z,100146.19
2023-11-09T08:29:15.024Z,100162.19
2023-11-09T08:34:20.379Z,100160.00
2023-11-09T08:39:24.216Z,100152.06
2023-11-09T08:44:28.076Z,100146.47
2023-11-09T08:49:33.270Z,100162.47
2023-11-09T08:54:37.056Z,100154.94
2023-11-09T08:59:40.819Z,100146.91
2023-11-09T09:04:48.552Z,100142.75
2023-11-09T09:09:54.159Z,100149.37
2023-11-09T09:14:59.063Z,100138.00
2023-11-09T09:20:08.586Z,100121.72
2023-11-09T09:25:12.860Z,100129.56
2023-11-09T09:30:19.727Z,100115.78
2023-11-09T09:35:29.799Z,100114.59
2023-11-09T09:40:47.544Z,100108.31
2023-11-09T09:45:59.371Z,100111.78
2023-11-09T09:51:10.560Z,100114.84
2023-11-09T09:56:15.026Z,100112.38
2023-11-09T10:01:20.686Z,100105.75
2023-11-09T10:06:26.566Z,100107.94
2023-11-09T10:11:33.394Z,100099.38
2023-11-09T10:16:37.184Z,100104.59
2023-11-09T10:21:45.188Z,100108.22
2023-11-09T10:26:48.941Z,100100.44
2023-11-09T10:31:54.595Z,100104.72
2023-11-09T10:36:59.731Z,100098.31
2023-11-09T10:42:05.533Z,100092.94
2023-11-09T10:47:10.445Z,100075.00
2023-11-09T10:52:17.572Z,100075.59
2023-11-09T10:57:22.432Z,100065.31
2023-11-09T11:02:28.743Z,100067.50
2023-11-09T11:07:40.511Z,100064.31
2023-11-09T11:12:46.394Z,100065.34
2023-11-09T11:18:06.570Z,100053.97
2023-11-09T11:23:41.502Z,100043.59
2023-11-09T11:28:45.322Z,100029.22
2023-11-09T11:33:49.381Z,100022.41
2023-11-09T11:39:14.993Z,100014.97
2023-11-09T11:44:24.400Z,100006.47
2023-11-09T11:49:35.260Z,99996.22
2023-11-09T11:54:43.468Z,99990.66
2023-11-09T12:00:05.211Z,99979.97
2023-11-09T12:05:10.699Z,99995.03
2023-11-09T12:10:23.157Z,99974.84
2023-11-09T12:15:30.188Z,99971.28
2023-11-09T12:20:34.652Z,99949.66
2023-11-09T12:25:52.781Z,99949.09
2023-11-09T12:30:57.067Z,99936.41
2023-11-09T12:36:03.877Z,99929.59
2023-11-09T12:41:09.050Z,99926.31
2023-11-09T12:46:15.555Z,99921.59
2023-11-09T12:51:23.100Z,99913.50
2023-11-09T12:56:33.595Z,99913.22
2023-11-09T13:01:40.025Z,99901.19
2023-11-09T13:06:44.299Z,99900.38
2023-11-09T13:11:49.419Z,99895.03
2023-11-09T13:16:53.229Z,99879.41
2023-11-09T13:21:57.524Z,99868.66
2023-11-09T13:27:07.619Z,99859.84
2023-11-09T13:32:16.393Z,99850.50
2023-11-09T13:37:30.937Z,99847.25
2023-11-09T13:42:38.609Z,99831.66
2023-11-09T13:47:44.268Z,99822.91
2023-11-09T13:52:52.328Z,99808.88
2023-11-09T13:57:57.543Z,99800.38
2023-11-09T14:03:01.358Z,99800.03
2023-11-09T14:08:10.461Z,99794.72
2023-11-09T14:13:15.994Z,99782.88
2023-11-09T14:18:45.147Z,99787.16
2023-11-09T14:23:49.456Z,99766.88
2023-11-09T14:29:00.858Z,99787.53
2023-11-09T14:34:07.112Z,99773.03
2023-11-09T14:39:25.009Z,99768.88
2023-11-09T14:44:30.918Z,99778.31
2023-11-09T14:49:36.004Z,99763.97
2023-11-09T14:54:41.585Z,99760.44
2023-11-09T14:59:47.322Z,99772.94
2023-11-09T15:04:54.621Z,99759.50
2023-11-09T15:10:01.253Z,99750.94
2023-11-09T15:15:09.277Z,99751.28
2023-11-09T15:20:22.598Z,99730.22
2023-11-09T15:25:26.813Z,99719.16
2023-11-09T15:30:32.719Z,99709.81
2023-11-09T15:35:36.489Z,99697.72
2023-11-09T15:41:14.835Z,99693.94
2023-11-09T15:46:08.110Z,99676.75
2023-11-09T15:51:11.918Z,99672.56
2023-11-09T15:56:17.010Z,99675.19
2023-11-09T16:01:22.271Z,99687.91
2023-11-09T16:06:26.089Z,99747.75
2023-11-09T16:11:30.397Z,99761.75
2023-11-09T16:16:35.745Z,99748.78
2023-11-09T16:21:39.658Z,99752.66
2023-11-09T16:26:44.402Z,99739.41
2023-11-09T16:31:49.642Z,99730.69
2023-11-09T16:36:53.472Z,99727.59
2023-11-09T16:41:57.235Z,99699.78
2023-11-09T16:47:02.679Z,99713.81
2023-11-09T16:52:06.869Z,99693.41
2023-11-09T16:57:11.571Z,99696.00
2023-11-09T17:02:16.857Z,99705.59
2023-11-09T17:07:20.884Z,99710.66
2023-11-09T17:12:44.758Z,99715.12
2023-11-09T17:17:49.936Z,99711.00
2023-11-09T17:22:53.705Z,99709.91
2023-11-09T17:27:57.524Z,99723.78
2023-11-09T17:33:02.673Z,99718.37
2023-11-09T17:38:06.522Z,99713.13
2023-11-09T17:43:15.317Z,99704.53
2023-11-09T17:48:21.177Z,99701.63
2023-11-09T17:53:24.929Z,99698.94
2023-11-09T17:58:28.780Z,99707.06
2023-11-09T18:03:33.880Z,99695.13
2023-11-09T18:08:37.644Z,99686.88
2023-11-09T18:13:41.386Z,99684.47
2023-11-09T18:18:46.462Z,99690.28
2023-11-09T18:23:52.734Z,99692.78
2023-11-09T18:28:56.549Z,99679.22
2023-11-09T18:34:01.699Z,99667.06
2023-11-09T18:39:05.687Z,99661.88
2023-11-09T18:44:09.407Z,99656.75
2023-11-09T18:54:21.218Z,99658.09
2023-11-09T18:59:24.950Z,99657.94
2023-11-09T19:09:36.698Z,99683.34
2023-11-09T19:14:40.471Z,99693.75
2023-11-09T19:19:45.590Z,99685.75
2023-11-09T19:24:49.332Z,99690.81
2023-11-09T19:29:53.076Z,99693.12
2023-11-09T19:34:58.274Z,99699.00
2023-11-09T19:40:02.008Z,99695.03
2023-11-09T19:45:06.972Z,99696.06
2023-11-09T19:50:13.169Z,99691.47
2023-11-09T19:55:17.118Z,99691.50
2023-11-09T20:00:22.600Z,99680.47
2023-11-09T20:05:28.269Z,99682.84
2023-11-09T20:10:32.312Z,99677.97
2023-11-09T20:15:36.576Z,99679.56
2023-11-09T20:20:41.768Z,99687.50
2023-11-09T20:25:45.577Z,99689.25
2023-11-09T20:30:49.416Z,99690.25
2023-11-09T20:35:54.464Z,99689.37
2023-11-09T20:40:58.980Z,99692.12
2023-11-09T20:46:04.834Z,99690.94
2023-11-09T20:51:11.198Z,99677.38
2023-11-09T20:56:14.927Z,99676.69
2023-11-09T21:01:18.885Z,99673.75
2023-11-09T21:06:25.504Z,99661.94
2023-11-09T21:11:30.177Z,99668.38
2023-11-09T21:16:34.122Z,99666.63
2023-11-09T21:21:39.289Z,99652.19
2023-11-09T21:26:43.280Z,99656.75
2023-11-09T21:31:46.987Z,99645.63
2023-11-09T21:36:52.051Z,99644.06
2023-11-09T21:41:55.790Z,99652.06
2023-11-09T21:46:59.570Z,99646.88
2023-11-09T21:52:05.124Z,99629.53
2023-11-09T21:57:09.121Z,99632.75
2023-11-09T22:02:12.918Z,99620.47
2023-11-09T22:07:17.943Z,99617.41
2023-11-09T22:12:22.114Z,99611.38
2023-11-09T22:17:25.982Z,99610.13
2023-11-09T22:22:31.832Z,99605.81
2023-11-09T22:27:35.729Z,99610.78
2023-11-09T22:32:40.045Z,99621.81
2023-11-09T22:37:45.107Z,99601.16
2023-11-09T22:42:49.360Z,99598.63
2023-11-09T22:47:53.129Z,99614.66
2023-11-09T22:53:00.227Z,99599.56
2023-11-09T22:58:04.737Z,99595.19
2023-11-09T23:03:10.531Z,99599.53
2023-11-09T23:08:16.175Z,99575.59
2023-11-09T23:13:20.850Z,99576.44
2023-11-09T23:18:24.600Z,99585.84
2023-11-09T23:23:34.574Z,99579.09
2023-11-09T23:28:38.544Z,99575.81
2023-11-09T23:33:43.530Z,99569.81
2023-11-09T23:38:48.646Z,99570.56
2023-11-09T23:43:52.323Z,99572.56
2023-11-09T23:48:56.404Z,99549.44
2023-11-09T23:54:01.509Z,99552.88
2023-11-09T23:59:05.368Z,99538.59
